Airfield :
LOGIN :

Register | Disclaimer

   EN    FR    IT 

 










Legend :    VFR   Marginal VFR   IFR   Intensive IFR   Very Intensive IFR
Visi :
Ceiling :
>= 8 km
>= 3000ft
5 to 8 km
1000 to 3000 ft
1500m to 5 km
500 to 1000 ft
800 to 1500m
200 to 500 ft
< 800m
< 200 ft
Symbols :   Thunderstorms  Fog  Heavy snow  Heavy precipitations  Wind > 20 kt
SIGMETs :     Misc.  Thunderstorms  Icing  Turbulence  Mountain Waves  Volcanic Ashes






- Airport Elevation : 102 ft
- IATA code : KEL


EDHK - Holtenau

CURRENT METAR :
  • 230750Z 21008KT 180V240 CAVOK 20/16 Q1014

EXPIRED METARs :
  • 230720Z 21007KT 170V250 9999 SCT047 19/14 Q1014
  • 230650Z VRB07KT 9999 SCT042 19/14 Q1014
  • 230620Z 19006KT 160V240 9999 FEW041 19/13 Q1014
  • 230550Z 17005KT 140V210 9999 FEW041 18/13 Q1014
  • 230520Z AUTO 19007KT 150V210 9999 // FEW042/// BKN100/// 17/12 Q1014
  • 230450Z AUTO 18005KT 150V220 9999 // FEW041/// BKN100/// 17/12 Q1015
  • 230420Z AUTO 18004KT 150V210 9999 // FEW043/// OVC057/// 16/11 Q1015
  • 230350Z AUTO 17005KT 140V200 9999 // BKN041/// BKN047/// OVC099/// 16/11 Q1015

TAF TAF EDHK
Valid from the 23 at 06:00 until the 23 at 15:00 UTC


230500Z 2306/2315 19007KT 9999 SCT025
PROB30
TEMPO 2306/2307 SHRA BKN025TCU
TEMPO 2310/2315 24015KT 4000 SHRA SCT012 BKN020CB
PROB30
TEMPO 2311/2315 25020G35KT 2500 +TSRAGR SCT008 BKN012CB
BECMG 2313/2315 25007KT



MET'MAP, your aeronautical weather chart ! - Copyright ORBIFLY December 2007 - Disclaimer

ORBIFLY MET'MAP TEAM :

Programming & Development : Alexandra Zaïnal
Original concept : Baudouin d'Aumeries
Technical & hardware support : Manuel Goepfert
Assistance : Marc-Olivier Méhu




SOURCES & CREDITS :

   NOAA